createdAt,value
2018-01-02T00:00:32.902Z,43.20
2018-01-02T00:03:00.661Z,42.40
2018-01-02T00:05:28.478Z,44.10
2018-01-02T00:07:56.308Z,44.00
2018-01-02T00:10:24.073Z,44.10
2018-01-02T00:12:51.879Z,43.90
2018-01-02T00:15:19.667Z,43.20
2018-01-02T00:17:47.425Z,39.60
2018-01-02T00:20:15.219Z,39.40
2018-01-02T00:22:42.969Z,43.30
2018-01-02T00:25:10.727Z,44.90
2018-01-02T00:27:38.539Z,44.30
2018-01-02T00:30:06.400Z,44.10
2018-01-02T00:32:34.239Z,44.10
2018-01-02T00:35:02.022Z,43.90
2018-01-02T00:37:29.765Z,42.20
2018-01-02T00:39:57.575Z,42.30
2018-01-02T00:42:25.699Z,44.10
2018-01-02T00:44:53.514Z,42.70
2018-01-02T00:47:21.338Z,44.70
2018-01-02T00:49:49.099Z,44.30
2018-01-02T00:52:16.867Z,44.10
2018-01-02T00:54:44.641Z,44.00
2018-01-02T00:57:12.466Z,40.40
2018-01-02T00:59:40.277Z,44.90
2018-01-02T01:02:08.016Z,44.60
2018-01-02T01:04:35.833Z,44.50
2018-01-02T01:07:03.607Z,42.10
2018-01-02T01:09:31.410Z,45.30
2018-01-02T01:12:00.021Z,42.50
2018-01-02T01:14:27.789Z,42.90
2018-01-02T01:16:55.695Z,45.50
2018-01-02T01:19:23.519Z,47.50
2018-01-02T01:21:51.265Z,47.50
2018-01-02T01:24:19.090Z,44.50
2018-01-02T01:26:47.664Z,46.70
2018-01-02T01:29:15.472Z,46.70
2018-01-02T01:31:43.306Z,45.10
2018-01-02T01:34:11.818Z,45.00
2018-01-02T01:36:39.622Z,45.00
2018-01-02T01:39:07.355Z,45.30
2018-01-02T01:41:35.104Z,43.90
2018-01-02T01:44:02.855Z,45.00
2018-01-02T01:46:30.618Z,45.00
2018-01-02T01:48:58.352Z,43.40
2018-01-02T01:51:26.193Z,45.00
2018-01-02T01:53:54.719Z,41.50
2018-01-02T01:56:22.533Z,41.50
2018-01-02T01:58:50.337Z,38.50
2018-01-02T02:01:18.087Z,50.60
2018-01-02T02:03:45.877Z,60.10
2018-01-02T02:06:13.772Z,61.00
2018-01-02T02:08:41.588Z,54.60
2018-01-02T02:11:09.358Z,46.80
2018-01-02T02:13:37.206Z,51.30
2018-01-02T02:16:05.006Z,47.50
2018-01-02T02:18:32.817Z,48.40
2018-01-02T02:21:00.562Z,49.80
2018-01-02T02:23:28.335Z,50.50
2018-01-02T02:25:56.137Z,51.40
2018-01-02T02:28:23.959Z,55.40
2018-01-02T02:30:51.787Z,50.40
2018-01-02T02:33:19.617Z,47.60
2018-01-02T02:35:47.369Z,52.50
2018-01-02T02:38:15.200Z,44.10
2018-01-02T02:40:54.666Z,55.00
2018-01-02T02:43:22.480Z,44.50
2018-01-02T02:45:50.245Z,44.50
2018-01-02T02:48:18.003Z,53.30
2018-01-02T02:50:45.791Z,50.00
2018-01-02T02:53:13.533Z,52.10
2018-01-02T02:55:41.342Z,48.40
2018-01-02T02:58:09.848Z,50.00
2018-01-02T03:00:37.580Z,49.90
2018-01-02T03:03:05.343Z,48.60
2018-01-02T03:05:33.207Z,52.50
2018-01-02T03:08:01.034Z,51.40
2018-01-02T03:10:28.867Z,50.20
2018-01-02T03:12:57.389Z,56.10
2018-01-02T03:15:25.138Z,56.20
2018-01-02T03:17:52.955Z,55.10
2018-01-02T03:20:20.710Z,50.80
2018-01-02T03:22:48.442Z,59.80
2018-01-02T03:25:16.179Z,52.20
2018-01-02T03:27:43.930Z,58.20
2018-01-02T03:30:11.713Z,54.30
2018-01-02T03:32:39.504Z,59.30
2018-01-02T03:35:07.295Z,51.90
2018-01-02T03:37:40.564Z,50.30
2018-01-02T03:40:08.362Z,46.80
2018-01-02T03:42:36.164Z,50.50
2018-01-02T03:45:03.967Z,51.20
2018-01-02T03:47:32.502Z,55.00
2018-01-02T03:50:00.322Z,58.00
2018-01-02T03:52:28.075Z,63.00
2018-01-02T03:54:55.868Z,55.20
2018-01-02T03:57:23.700Z,52.80
2018-01-02T03:59:51.460Z,55.00
2018-01-02T04:02:19.264Z,56.40
2018-01-02T04:04:47.031Z,59.00
2018-01-02T04:07:14.826Z,63.90
2018-01-02T04:09:42.660Z,61.30
2018-01-02T04:12:10.433Z,59.60
2018-01-02T04:14:38.216Z,54.80
2018-01-02T04:17:06.018Z,56.60
2018-01-02T04:19:33.830Z,57.60
2018-01-02T04:22:01.569Z,59.90
2018-01-02T04:24:29.361Z,57.00
2018-01-02T04:26:57.178Z,63.30
2018-01-02T04:29:24.986Z,59.80
2018-01-02T04:31:52.716Z,62.20
2018-01-02T04:34:20.562Z,57.50
2018-01-02T04:36:48.306Z,55.30
2018-01-02T04:39:16.076Z,58.50
2018-01-02T04:41:43.901Z,56.50
2018-01-02T04:44:12.469Z,53.80
2018-01-02T04:46:40.205Z,53.70
2018-01-02T04:49:08.726Z,53.70
2018-01-02T04:51:37.247Z,55.60
2018-01-02T04:54:04.971Z,55.00
2018-01-02T04:56:32.777Z,52.60
2018-01-02T04:59:00.546Z,51.90
2018-01-02T05:01:28.379Z,53.60
2018-01-02T05:03:56.145Z,51.80
2018-01-02T05:06:23.953Z,53.10
2018-01-02T05:08:51.795Z,54.10
2018-01-02T05:11:20.335Z,56.50
2018-01-02T05:13:48.109Z,56.50
2018-01-02T05:16:15.891Z,50.10
2018-01-02T05:18:43.681Z,49.70
2018-01-02T05:21:12.249Z,50.90
2018-01-02T05:23:40.016Z,51.00
2018-01-02T05:26:07.766Z,52.20
2018-01-02T05:28:35.587Z,54.50
2018-01-02T05:31:03.338Z,55.10
2018-01-02T05:33:31.165Z,57.00
2018-01-02T05:35:58.977Z,51.10
2018-01-02T05:38:26.727Z,51.50
2018-01-02T05:40:54.485Z,53.00
2018-01-02T05:43:22.296Z,53.70
2018-01-02T05:45:50.059Z,53.60
2018-01-02T05:48:17.864Z,54.80
2018-01-02T05:50:45.694Z,53.60
2018-01-02T05:53:13.503Z,52.10
2018-01-02T05:55:41.328Z,55.60
2018-01-02T05:58:09.087Z,53.70
2018-01-02T06:00:36.873Z,55.10
2018-01-02T06:03:04.633Z,57.80
2018-01-02T06:05:32.436Z,52.00
2018-01-02T06:08:00.238Z,55.80
2018-01-02T06:10:28.754Z,57.90
2018-01-02T06:12:56.563Z,57.80
2018-01-02T06:15:24.331Z,53.00
2018-01-02T06:17:52.145Z,56.10
2018-01-02T06:20:19.989Z,54.50
2018-01-02T06:22:47.733Z,54.40
2018-01-02T06:25:15.570Z,54.70
2018-01-02T06:27:43.351Z,57.70
2018-01-02T06:30:11.100Z,58.60
2018-01-02T06:32:38.908Z,58.50
2018-01-02T06:35:06.741Z,55.80
2018-01-02T06:37:34.504Z,58.20
2018-01-02T06:40:02.318Z,57.60
2018-01-02T06:42:30.112Z,58.80
2018-01-02T06:44:57.863Z,60.00
2018-01-02T06:47:25.658Z,59.00
2018-01-02T06:49:53.368Z,59.60
2018-01-02T06:52:21.170Z,58.40
2018-01-02T06:54:48.914Z,59.50
2018-01-02T06:57:16.643Z,62.30
2018-01-02T06:59:44.403Z,61.20
2018-01-02T07:02:12.163Z,58.10
2018-01-02T07:04:39.976Z,60.10
2018-01-02T07:07:07.710Z,61.50
2018-01-02T07:09:35.570Z,59.90
2018-01-02T07:12:03.369Z,61.40
2018-01-02T07:14:31.122Z,62.50
2018-01-02T07:16:58.882Z,62.90
2018-01-02T07:19:26.617Z,62.20
2018-01-02T07:21:54.364Z,59.20
2018-01-02T07:24:22.112Z,60.90
2018-01-02T07:26:49.921Z,60.30
2018-01-02T07:29:17.742Z,61.90
2018-01-02T07:31:45.551Z,60.00
2018-01-02T07:34:13.294Z,63.00
2018-01-02T07:36:41.078Z,60.40
2018-01-02T07:39:08.877Z,57.80
2018-01-02T07:41:36.713Z,61.90
2018-01-02T07:44:04.443Z,59.40
2018-01-02T07:46:32.291Z,58.00
2018-01-02T07:49:00.086Z,59.30
2018-01-02T07:51:27.896Z,59.70
2018-01-02T07:53:55.712Z,61.20
2018-01-02T07:56:23.498Z,59.70
2018-01-02T07:58:51.310Z,57.90
2018-01-02T08:01:19.112Z,57.90
2018-01-02T08:03:46.869Z,59.70
2018-01-02T08:06:14.612Z,55.00
2018-01-02T08:08:42.404Z,57.70
2018-01-02T08:11:10.221Z,53.60
2018-01-02T08:13:37.958Z,53.70
2018-01-02T08:16:05.702Z,56.50
2018-01-02T08:18:33.466Z,53.00
2018-01-02T08:21:01.231Z,56.50
2018-01-02T08:23:28.982Z,57.10
2018-01-02T08:25:56.782Z,57.10
2018-01-02T08:28:24.562Z,57.10
2018-01-02T08:30:53.104Z,53.70
2018-01-02T08:33:20.901Z,53.40
2018-01-02T08:35:48.699Z,56.10
2018-01-02T08:38:16.509Z,56.10
2018-01-02T08:40:44.253Z,51.60
2018-01-02T08:43:11.991Z,52.70
2018-01-02T08:45:39.764Z,56.70
2018-01-02T08:48:07.597Z,55.00
2018-01-02T08:50:35.346Z,55.30
2018-01-02T08:53:03.112Z,56.50
2018-01-02T08:55:30.906Z,56.00
2018-01-02T08:57:58.701Z,56.60
2018-01-02T09:00:26.480Z,55.60
2018-01-02T09:02:54.267Z,57.90
2018-01-02T09:05:21.997Z,55.80
2018-01-02T09:07:50.571Z,56.90
2018-01-02T09:10:19.159Z,59.50
2018-01-02T09:12:48.865Z,60.20
2018-01-02T09:15:16.651Z,55.60
2018-01-02T09:17:44.446Z,58.20
2018-01-02T09:20:12.197Z,59.30
2018-01-02T09:22:39.978Z,58.10
2018-01-02T09:25:07.797Z,53.10
2018-01-02T09:27:35.618Z,55.80
2018-01-02T09:30:03.365Z,57.80
2018-01-02T09:32:31.182Z,55.00
2018-01-02T09:34:59.013Z,54.60
2018-01-02T09:37:26.823Z,55.50
2018-01-02T09:39:54.644Z,54.50
2018-01-02T09:42:22.375Z,55.60
2018-01-02T09:44:50.183Z,54.20
2018-01-02T09:47:17.998Z,53.60
2018-01-02T09:49:45.821Z,55.20
2018-01-02T09:52:13.573Z,52.20
2018-01-02T09:54:41.340Z,55.30
2018-01-02T09:57:09.097Z,53.50
2018-01-02T09:59:36.927Z,52.30
2018-01-02T10:02:04.738Z,52.80
2018-01-02T10:04:32.509Z,53.30
2018-01-02T10:07:00.376Z,51.80
2018-01-02T10:09:28.168Z,51.00
2018-01-02T10:11:55.982Z,54.50
2018-01-02T10:14:24.507Z,54.00
2018-01-02T10:16:52.316Z,53.90
2018-01-02T10:19:20.123Z,54.00
2018-01-02T10:21:47.880Z,49.20
2018-01-02T10:24:15.699Z,49.00
2018-01-02T10:26:43.520Z,51.00
2018-01-02T10:29:11.330Z,51.70
2018-01-02T10:31:39.080Z,51.50
2018-01-02T10:34:06.908Z,50.70
2018-01-02T10:36:34.652Z,52.60
2018-01-02T10:39:02.456Z,50.30
2018-01-02T10:41:30.211Z,51.20
2018-01-02T10:43:58.045Z,49.10
2018-01-02T10:46:25.869Z,49.60
2018-01-02T10:48:53.651Z,50.90
2018-01-02T10:51:21.475Z,49.50
2018-01-02T10:53:50.015Z,49.10
2018-01-02T10:56:17.848Z,49.00
2018-01-02T10:58:45.588Z,52.60
2018-01-02T11:01:29.904Z,52.10
2018-01-02T11:03:57.700Z,49.50
2018-01-02T11:06:25.446Z,49.10
2018-01-02T11:08:53.257Z,51.30
2018-01-02T11:11:21.782Z,49.80
2018-01-02T11:13:53.535Z,49.80
2018-01-02T11:16:21.331Z,49.60
2018-01-02T11:18:49.189Z,49.50
2018-01-02T11:21:16.941Z,49.20
2018-01-02T11:23:44.776Z,49.50
2018-01-02T11:26:12.551Z,52.60
2018-01-02T11:28:40.300Z,48.60
2018-01-02T11:31:08.894Z,48.40
2018-01-02T11:33:36.712Z,48.40
2018-01-02T11:36:04.492Z,48.10
2018-01-02T11:38:32.233Z,50.00
2018-01-02T11:41:00.070Z,46.90
2018-01-02T11:43:27.824Z,47.20
2018-01-02T11:45:55.907Z,50.50
2018-01-02T11:48:23.722Z,47.90
2018-01-02T11:50:51.453Z,46.10
2018-01-02T11:53:19.205Z,47.70
2018-01-02T11:55:46.994Z,47.20
2018-01-02T11:58:14.783Z,46.60
2018-01-02T12:00:42.651Z,47.20
2018-01-02T12:03:10.408Z,45.60
2018-01-02T12:05:38.161Z,44.00
2018-01-02T12:08:05.914Z,43.60
2018-01-02T12:10:33.728Z,43.90
2018-01-02T12:13:01.473Z,45.60
2018-01-02T12:15:29.288Z,43.60
2018-01-02T12:17:57.107Z,44.90
2018-01-02T12:20:24.929Z,45.80
2018-01-02T12:22:53.423Z,44.50
2018-01-02T12:25:22.116Z,44.40
2018-01-02T12:27:49.953Z,43.00
2018-01-02T12:30:17.703Z,44.30
2018-01-02T12:32:45.472Z,44.00
2018-01-02T12:35:13.300Z,42.50
2018-01-02T12:37:41.142Z,42.30
2018-01-02T12:40:08.960Z,42.60
2018-01-02T12:42:36.781Z,46.60
2018-01-02T12:45:05.390Z,46.10
2018-01-02T12:47:33.172Z,45.90
2018-01-02T12:50:00.934Z,42.50
2018-01-02T12:52:28.724Z,46.70
2018-01-02T12:54:56.563Z,45.90
2018-01-02T12:57:24.319Z,42.20
2018-01-02T12:59:52.148Z,43.30
2018-01-02T13:02:19.910Z,43.10
2018-01-02T13:04:47.665Z,41.80
2018-01-02T13:07:15.430Z,42.70
2018-01-02T13:09:43.281Z,42.00
2018-01-02T13:12:11.015Z,45.70
2018-01-02T13:14:39.593Z,38.80
2018-01-02T13:17:08.164Z,38.40
2018-01-02T13:19:35.966Z,38.30
2018-01-02T13:22:03.811Z,38.20
2018-01-02T13:24:32.374Z,37.00
2018-01-02T13:27:00.136Z,36.60
2018-01-02T13:29:27.872Z,37.90
2018-01-02T13:31:55.608Z,35.70
2018-01-02T13:34:23.368Z,37.50
2018-01-02T13:36:51.175Z,34.50
2018-01-02T13:39:18.963Z,31.90
2018-01-02T13:41:46.769Z,33.50
2018-01-02T13:44:14.543Z,35.80
2018-01-02T13:46:42.307Z,34.60
2018-01-02T13:49:10.058Z,33.40
2018-01-02T13:51:37.841Z,31.50
2018-01-02T13:54:05.602Z,32.00
2018-01-02T13:56:33.401Z,32.40
2018-01-02T13:59:01.182Z,32.40
2018-01-02T14:01:28.978Z,37.80
2018-01-02T14:03:56.798Z,30.30
2018-01-02T14:06:24.588Z,32.40
2018-01-02T14:08:52.392Z,32.50
2018-01-02T14:11:20.177Z,32.90
2018-01-02T14:13:47.975Z,38.80
2018-01-02T14:16:15.768Z,32.90
2018-01-02T14:18:43.534Z,36.50
2018-01-02T14:21:11.339Z,36.00
2018-01-02T14:23:39.081Z,32.60
2018-01-02T14:26:06.835Z,33.00
2018-01-02T14:28:34.623Z,31.20
2018-01-02T14:31:02.373Z,35.10
2018-01-02T14:33:30.211Z,32.50
2018-01-02T14:35:57.977Z,32.90
2018-01-02T14:38:25.730Z,32.50
2018-01-02T14:40:53.501Z,33.00
2018-01-02T14:43:21.296Z,33.10
2018-01-02T14:45:49.058Z,37.60
2018-01-02T14:48:16.786Z,33.80
2018-01-02T14:50:44.530Z,32.70
2018-01-02T14:53:12.350Z,32.90
2018-01-02T14:55:40.158Z,34.10
2018-01-02T14:58:07.920Z,37.40
2018-01-02T15:00:36.542Z,33.10
2018-01-02T15:03:04.355Z,33.00
2018-01-02T15:05:32.133Z,41.20
2018-01-02T15:07:59.939Z,33.10
2018-01-02T15:10:27.739Z,36.40
2018-01-02T15:12:55.481Z,33.10
2018-01-02T15:15:23.278Z,33.20
2018-01-02T15:17:51.098Z,32.70
2018-01-02T15:20:18.849Z,34.20
2018-01-02T15:22:46.648Z,34.20
2018-01-02T15:25:14.509Z,32.70
2018-01-02T15:27:42.228Z,32.20
2018-01-02T15:30:09.962Z,33.30
2018-01-02T15:32:38.185Z,32.20
2018-01-02T15:35:05.965Z,34.70
2018-01-02T15:37:34.529Z,32.10
2018-01-02T15:40:02.367Z,32.10
2018-01-02T15:42:30.109Z,35.10
2018-01-02T15:44:57.869Z,31.90
2018-01-02T15:47:25.614Z,31.70
2018-01-02T15:49:53.449Z,31.90
2018-01-02T15:52:21.268Z,31.00
2018-01-02T15:54:49.053Z,35.80
2018-01-02T15:57:16.813Z,38.50
2018-01-02T15:59:44.594Z,31.80
2018-01-02T16:02:12.322Z,32.30
2018-01-02T16:04:40.916Z,31.50
2018-01-02T16:07:08.708Z,31.50
2018-01-02T16:09:36.496Z,37.90
2018-01-02T16:12:04.272Z,30.80
2018-01-02T16:14:32.111Z,31.80
2018-01-02T16:16:59.845Z,33.20
2018-01-02T16:19:28.405Z,30.40
2018-01-02T16:21:56.193Z,30.30
2018-01-02T16:24:23.985Z,37.90
2018-01-02T16:26:51.741Z,30.00
2018-01-02T16:29:19.536Z,29.60
2018-01-02T16:31:47.273Z,33.00
2018-01-02T16:34:15.004Z,31.00
2018-01-02T16:36:42.751Z,31.00
2018-01-02T16:39:10.480Z,38.40
2018-01-02T16:41:38.286Z,34.00
2018-01-02T16:44:06.091Z,35.40
2018-01-02T16:46:34.603Z,29.80
2018-01-02T16:49:02.362Z,29.80
2018-01-02T16:51:30.171Z,30.70
2018-01-02T16:53:57.909Z,31.00
2018-01-02T16:56:25.725Z,28.50
2018-01-02T16:58:53.467Z,30.60
2018-01-02T17:01:21.300Z,30.00
2018-01-02T17:03:49.121Z,28.60
2018-01-02T17:06:16.873Z,29.40
2018-01-02T17:08:44.691Z,28.40
2018-01-02T17:11:12.463Z,29.30
2018-01-02T17:13:40.244Z,28.30
2018-01-02T17:16:08.075Z,29.20
2018-01-02T17:18:35.931Z,29.90
2018-01-02T17:21:03.694Z,28.60
2018-01-02T17:23:31.430Z,28.00
2018-01-02T17:25:59.220Z,27.40
2018-01-02T17:28:26.966Z,27.20
2018-01-02T17:30:54.787Z,30.80
2018-01-02T17:33:22.562Z,28.50
2018-01-02T17:35:50.328Z,29.10
2018-01-02T17:38:18.067Z,27.20
2018-01-02T17:40:45.800Z,27.60
2018-01-02T17:43:13.576Z,31.40
2018-01-02T17:45:41.368Z,27.90
2018-01-02T17:48:09.147Z,29.80
2018-01-02T17:50:37.704Z,25.50
2018-01-02T17:53:05.510Z,25.40
2018-01-02T17:55:34.103Z,27.30
2018-01-02T17:58:01.957Z,27.20
2018-01-02T18:00:30.541Z,26.10
2018-01-02T18:02:58.312Z,26.10
2018-01-02T18:05:26.106Z,25.90
2018-01-02T18:07:53.934Z,31.50
2018-01-02T18:10:21.670Z,30.40
2018-01-02T18:12:49.452Z,27.70
2018-01-02T18:15:17.265Z,24.60
2018-01-02T18:17:45.011Z,26.40
2018-01-02T18:20:13.587Z,25.00
2018-01-02T18:22:41.361Z,24.90
2018-01-02T18:25:09.135Z,35.30
2018-01-02T18:27:36.868Z,34.80
2018-01-02T18:30:04.704Z,32.10
2018-01-02T18:32:32.521Z,31.60
2018-01-02T18:35:01.085Z,42.00
2018-01-02T18:37:28.929Z,41.90
2018-01-02T18:39:56.685Z,31.80
2018-01-02T18:42:24.479Z,35.60
2018-01-02T18:44:52.228Z,30.70
2018-01-02T18:47:20.023Z,25.90
2018-01-02T18:49:47.813Z,40.60
2018-01-02T18:52:16.446Z,28.90
2018-01-02T18:54:44.263Z,28.70
2018-01-02T18:57:12.777Z,37.90
2018-01-02T18:59:40.622Z,38.00
2018-01-02T19:02:09.116Z,39.50
2018-01-02T19:04:37.684Z,38.60
2018-01-02T19:07:05.431Z,38.70
2018-01-02T19:09:33.186Z,28.90
2018-01-02T19:12:01.773Z,36.50
2018-01-02T19:14:29.553Z,36.80
2018-01-02T19:16:57.354Z,36.40
2018-01-02T19:19:25.171Z,33.20
2018-01-02T19:21:53.007Z,27.80
2018-01-02T19:24:20.825Z,27.70
2018-01-02T19:26:48.664Z,27.20
2018-01-02T19:29:16.440Z,31.10
2018-01-02T19:31:44.228Z,28.40
2018-01-02T19:34:12.026Z,31.00
2018-01-02T19:36:39.812Z,24.10
2018-01-02T19:39:07.557Z,27.40
2018-01-02T19:41:36.462Z,31.00
2018-01-02T19:44:04.210Z,30.90
2018-01-02T19:46:32.800Z,35.10
2018-01-02T19:49:01.402Z,34.90
2018-01-02T19:51:29.219Z,28.30
2018-01-02T19:53:57.314Z,35.70
2018-01-02T19:56:25.116Z,33.30
2018-01-02T19:58:52.904Z,22.40
2018-01-02T20:01:20.717Z,28.40
2018-01-02T20:03:48.482Z,21.50
2018-01-02T20:06:16.286Z,36.60
2018-01-02T20:08:44.077Z,27.50
2018-01-02T20:11:11.811Z,37.70
2018-01-02T20:13:39.623Z,25.50
2018-01-02T20:16:07.398Z,35.50
2018-01-02T20:18:41.102Z,33.70
2018-01-02T20:21:08.904Z,26.70
2018-01-02T20:23:36.729Z,28.40
2018-01-02T20:26:04.476Z,24.50
2018-01-02T20:28:32.269Z,26.80
2018-01-02T20:31:00.014Z,34.50
2018-01-02T20:33:27.754Z,30.90
2018-01-02T20:35:55.533Z,33.90
2018-01-02T20:38:23.357Z,28.50
2018-01-02T20:40:51.929Z,39.40
2018-01-02T20:43:19.735Z,39.30
2018-01-02T20:45:47.546Z,38.90
2018-01-02T20:48:15.339Z,40.60
2018-01-02T20:50:43.111Z,33.90
2018-01-02T20:53:11.685Z,32.30
2018-01-02T20:55:39.516Z,31.70
2018-01-02T20:58:07.371Z,38.00
2018-01-02T21:00:35.142Z,31.10
2018-01-02T21:03:02.940Z,37.00
2018-01-02T21:05:30.801Z,38.70
2018-01-02T21:07:58.608Z,33.30
2018-01-02T21:10:26.407Z,37.20
2018-01-02T21:12:54.153Z,21.40
2018-01-02T21:15:21.970Z,24.70
2018-01-02T21:17:49.780Z,30.20
2018-01-02T21:20:18.312Z,34.70
2018-01-02T21:22:46.120Z,34.40
2018-01-02T21:25:13.927Z,41.00
2018-01-02T21:27:41.728Z,33.50
2018-01-02T21:30:09.532Z,40.60
2018-01-02T21:32:38.100Z,40.90
2018-01-02T21:35:05.916Z,40.70
2018-01-02T21:37:34.492Z,36.90
2018-01-02T21:40:02.293Z,37.00
2018-01-02T21:42:30.085Z,31.30
2018-01-02T21:44:57.944Z,31.20
2018-01-02T21:47:25.747Z,34.00
2018-01-02T21:49:53.530Z,36.80
2018-01-02T21:52:21.348Z,32.00
2018-01-02T21:54:49.146Z,40.00
2018-01-02T21:57:16.962Z,40.80
2018-01-02T21:59:44.771Z,39.90
2018-01-02T22:02:13.382Z,39.30
2018-01-02T22:04:41.155Z,39.20
2018-01-02T22:07:08.992Z,40.30
2018-01-02T22:09:37.531Z,40.30
2018-01-02T22:12:05.336Z,40.30
2018-01-02T22:14:33.138Z,40.30
2018-01-02T22:17:00.939Z,40.00
2018-01-02T22:19:28.729Z,30.90
2018-01-02T22:21:56.498Z,39.50
2018-01-02T22:24:24.248Z,40.10
2018-01-02T22:26:52.200Z,39.90
2018-01-02T22:29:19.954Z,39.20
2018-01-02T22:31:47.745Z,38.70
2018-01-02T22:34:15.514Z,30.10
2018-01-02T22:36:43.267Z,38.90
2018-01-02T22:39:12.086Z,40.10
2018-01-02T22:41:41.057Z,40.10
2018-01-02T22:44:08.803Z,40.00
2018-01-02T22:46:36.874Z,39.70
2018-01-02T22:49:15.355Z,35.40
2018-01-02T22:51:43.177Z,39.20
2018-01-02T22:54:12.430Z,39.40
2018-01-02T22:56:46.952Z,29.20
2018-01-02T22:59:14.708Z,29.00
2018-01-02T23:01:42.457Z,31.40
2018-01-02T23:04:10.301Z,27.50
2018-01-02T23:06:38.072Z,35.20
2018-01-02T23:09:05.870Z,30.00
2018-01-02T23:11:33.699Z,36.60
2018-01-02T23:14:01.498Z,38.10
2018-01-02T23:16:29.329Z,41.50
2018-01-02T23:18:57.078Z,36.60
2018-01-02T23:21:25.696Z,39.20
2018-01-02T23:23:53.501Z,39.20
2018-01-02T23:26:21.320Z,34.00
2018-01-02T23:28:49.173Z,40.30
2018-01-02T23:31:16.979Z,40.20
2018-01-02T23:33:44.756Z,41.10
2018-01-02T23:36:12.502Z,41.00
2018-01-02T23:38:40.253Z,40.80
2018-01-02T23:41:07.999Z,40.60
2018-01-02T23:43:35.845Z,39.50
2018-01-02T23:46:03.636Z,39.70
2018-01-02T23:48:31.385Z,39.70
2018-01-02T23:50:59.207Z,41.20
2018-01-02T23:53:27.021Z,38.20
2018-01-02T23:55:55.535Z,39.90
2018-01-02T23:58:23.293Z,39.50
